Time;durP1;ratioP1;P1;durP2;ratioP2;P2;SDS_P1;SDS_P2;PMS_P1;PMS_P2;Temp;Humidity;BMP_temperature;BMP_pressure;BME280_temperature;BME280_humidity;BME280_pressure;Samples;Min_cycle;Max_cycle;Signal;HPM_P1;HPM_P2
2023/05/10 00:04:56;;;;;;;11;4.7;;;;;;;4.8;75.9;98960;;;;
2023/05/10 00:15:56;;;;;;;9.3;3.9;;;;;;;4.6;75.8;98950;;;;
2023/05/10 00:25:56;;;;;;;9.3;3.9;;;;;;;4.4;76.2;98950;;;;
2023/05/10 00:36:56;;;;;;;9.3;3.9;;;;;;;4.3;77.8;98950;;;;
2023/05/10 00:47:56;;;;;;;9.5;4.9;;;;;;;4.1;78.3;98940;;;;
2023/05/10 00:58:56;;;;;;;9.5;4.9;;;;;;;3.9;78.3;98940;;;;
2023/05/10 01:08:56;;;;;;;9.2;4.2;;;;;;;3.7;80.8;98930;;;;
2023/05/10 01:18:56;;;;;;;9.2;4.2;;;;;;;3.6;81.9;98920;;;;
2023/05/10 01:29:56;;;;;;;9.2;4.2;;;;;;;3.5;81.7;98920;;;;
2023/05/10 01:40:56;;;;;;;7.9;3.8;;;;;;;3.4;81.2;98920;;;;
2023/05/10 01:50:56;;;;;;;7.9;3.8;;;;;;;3.3;81.6;98910;;;;
2023/05/10 02:01:56;;;;;;;7.9;3.8;;;;;;;3.3;81.8;98910;;;;
2023/05/10 02:11:56;;;;;;;9.3;4.6;;;;;;;3.2;81.9;98900;;;;
2023/05/10 02:22:56;;;;;;;9.3;4.6;;;;;;;3.3;82.2;98890;;;;
2023/05/10 02:32:56;;;;;;;9.3;4.6;;;;;;;3.2;81.8;98890;;;;
2023/05/10 02:43:56;;;;;;;10.6;5.8;;;;;;;3.2;81.7;98890;;;;
2023/05/10 02:54:56;;;;;;;10.6;5.8;;;;;;;3.2;82.6;98880;;;;
2023/05/10 03:05:56;;;;;;;10.6;5.8;;;;;;;3.3;82.6;98880;;;;
2023/05/10 03:15:56;;;;;;;8.2;4.3;;;;;;;3.2;82.7;98890;;;;
2023/05/10 03:25:56;;;;;;;8.2;4.3;;;;;;;3.2;83.3;98890;;;;
2023/05/10 03:35:56;;;;;;;8.2;4.3;;;;;;;3.4;83.8;98880;;;;
2023/05/10 03:46:56;;;;;;;8.6;4.7;;;;;;;3.6;83.4;98880;;;;
2023/05/10 03:57:56;;;;;;;8.6;4.7;;;;;;;3.7;83.4;98880;;;;
2023/05/10 04:07:56;;;;;;;10.8;5.7;;;;;;;3.9;83.2;98880;;;;
2023/05/10 04:17:56;;;;;;;10.8;5.7;;;;;;;4.2;82.9;98890;;;;
2023/05/10 04:28:56;;;;;;;10.8;5.7;;;;;;;4.6;82.4;98890;;;;
2023/05/10 04:39:56;;;;;;;8.1;5.2;;;;;;;5.2;81.2;98890;;;;
2023/05/10 04:49:56;;;;;;;8.1;5.2;;;;;;;5.7;79.7;98890;;;;
2023/05/10 04:59:56;;;;;;;8.1;5.2;;;;;;;6.2;78.7;98890;;;;
2023/05/10 05:10:56;;;;;;;8;4.1;;;;;;;6.6;77.8;98880;;;;
2023/05/10 05:20:56;;;;;;;8;4.1;;;;;;;7.1;76;98890;;;;
2023/05/10 05:31:56;;;;;;;8;4.1;;;;;;;7.7;74.9;98880;;;;
2023/05/10 05:42:56;;;;;;;10;5.8;;;;;;;8.3;73.5;98880;;;;
2023/05/10 05:52:57;;;;;;;10;5.8;;;;;;;8.3;73.8;98880;;;;
2023/05/10 06:03:56;;;;;;;10;5.8;;;;;;;9.3;71.2;98880;;;;
2023/05/10 06:13:57;;;;;;;9.5;5;;;;;;;9.9;70.8;98880;;;;
2023/05/10 06:24:56;;;;;;;9.5;5;;;;;;;10.5;68.3;98880;;;;
2023/05/10 06:34:56;;;;;;;9.5;5;;;;;;;11.1;65.7;98880;;;;
2023/05/10 06:44:56;;;;;;;8.7;4.9;;;;;;;11.7;64;98880;;;;
2023/05/10 06:54:57;;;;;;;8.7;4.9;;;;;;;12;64.3;98880;;;;
2023/05/10 07:04:56;;;;;;;8.7;4.9;;;;;;;12.6;62.8;98870;;;;
2023/05/10 07:15:56;;;;;;;9.1;5.5;;;;;;;13;61.2;98870;;;;
2023/05/10 07:26:56;;;;;;;9.1;5.5;;;;;;;13.4;61.2;98870;;;;
2023/05/10 07:36:56;;;;;;;12.6;6.2;;;;;;;13.8;60.6;98860;;;;
2023/05/10 07:46:56;;;;;;;12.6;6.2;;;;;;;14.1;59.3;98860;;;;
2023/05/10 07:57:56;;;;;;;12.6;6.2;;;;;;;14.6;59.6;98860;;;;
2023/05/10 08:07:56;;;;;;;8.8;5.6;;;;;;;15;59.2;98850;;;;
2023/05/10 08:18:56;;;;;;;8.8;5.6;;;;;;;15.4;54.8;98840;;;;
2023/05/10 08:28:56;;;;;;;8.8;5.6;;;;;;;15.9;56.1;98840;;;;
2023/05/10 08:39:56;;;;;;;8.7;4.1;;;;;;;16.4;49.8;98830;;;;
2023/05/10 08:49:56;;;;;;;8.7;4.1;;;;;;;16.5;44.8;98830;;;;
2023/05/10 09:00:56;;;;;;;8.7;4.1;;;;;;;16.7;44.7;98830;;;;
2023/05/10 09:11:56;;;;;;;6.7;2.7;;;;;;;16.6;43.5;98830;;;;
2023/05/10 09:21:56;;;;;;;6.7;2.7;;;;;;;17;42.2;98830;;;;
2023/05/10 09:32:56;;;;;;;6.7;2.7;;;;;;;17.2;42.3;98820;;;;
2023/05/10 09:43:56;;;;;;;7.6;2.4;;;;;;;17.3;41.5;98820;;;;
2023/05/10 09:54:56;;;;;;;7.6;2.4;;;;;;;17.7;41.4;98810;;;;
2023/05/10 10:04:56;;;;;;;7.6;2.4;;;;;;;17.5;41.5;98810;;;;
2023/05/10 10:15:56;;;;;;;4.6;2;;;;;;;17.8;42.2;98790;;;;
2023/05/10 10:26:57;;;;;;;4.6;2;;;;;;;17.6;40.2;98790;;;;
2023/05/10 10:36:56;;;;;;;5.2;2.3;;;;;;;17.6;40.7;98780;;;;
2023/05/10 10:46:56;;;;;;;5.2;2.3;;;;;;;18.1;40.1;98780;;;;
2023/05/10 10:58:00;;;;;;;5.2;2.3;;;;;;;17.5;40.1;98770;;;;
2023/05/10 11:07:56;;;;;;;4.1;2.2;;;;;;;18.3;40;98760;;;;
2023/05/10 11:18:56;;;;;;;4.1;2.2;;;;;;;18.7;39.6;98750;;;;
2023/05/10 11:29:56;;;;;;;4.1;2.2;;;;;;;18.7;39.6;98750;;;;
2023/05/10 11:40:56;;;;;;;5.6;2.4;;;;;;;18.9;39.1;98740;;;;
2023/05/10 11:51:57;;;;;;;5.6;2.4;;;;;;;19.1;40.2;98730;;;;
2023/05/10 12:01:56;;;;;;;5.6;2.4;;;;;;;19.2;40.9;98730;;;;
2023/05/10 12:12:56;;;;;;;6.2;2.5;;;;;;;19;38.7;98720;;;;
2023/05/10 12:22:56;;;;;;;6.2;2.5;;;;;;;19.2;40.5;98720;;;;
2023/05/10 12:33:56;;;;;;;6.2;2.5;;;;;;;19.5;41.2;98720;;;;
2023/05/10 12:44:56;;;;;;;5.2;2.1;;;;;;;19.6;39.4;98700;;;;
2023/05/10 12:55:56;;;;;;;5.2;2.1;;;;;;;19.7;39.3;98690;;;;
2023/05/10 13:05:56;;;;;;;5.2;2.1;;;;;;;19.7;38.7;98680;;;;
2023/05/10 13:16:56;;;;;;;5.2;2.4;;;;;;;19.6;39.6;98670;;;;
2023/05/10 13:27:56;;;;;;;5.2;2.4;;;;;;;19.8;39;98670;;;;
2023/05/10 13:37:57;;;;;;;5.7;2.5;;;;;;;19.8;38;98660;;;;
2023/05/10 13:48:56;;;;;;;5.7;2.5;;;;;;;20.1;38.1;98640;;;;
2023/05/10 13:58:56;;;;;;;5.7;2.5;;;;;;;20.6;38.7;98630;;;;
2023/05/10 14:08:56;;;;;;;17.4;10.4;;;;;;;20.5;37.6;98630;;;;
2023/05/10 14:18:56;;;;;;;17.4;10.4;;;;;;;20.6;39;98630;;;;
2023/05/10 14:28:56;;;;;;;17.4;10.4;;;;;;;20.9;37.2;98620;;;;
2023/05/10 14:39:56;;;;;;;5.3;3;;;;;;;21.2;38.3;98620;;;;
2023/05/10 14:49:56;;;;;;;5.3;3;;;;;;;21;37.4;98630;;;;
2023/05/10 14:59:56;;;;;;;5.3;3;;;;;;;21;38.4;98640;;;;
2023/05/10 15:10:56;;;;;;;5.3;2.5;;;;;;;23.1;34.8;98620;;;;
2023/05/10 15:20:57;;;;;;;5.3;2.5;;;;;;;25.2;31.1;98600;;;;
2023/05/10 15:30:56;;;;;;;5.3;2.5;;;;;;;26.2;30.2;98600;;;;
2023/05/10 15:41:56;;;;;;;7.5;2.2;;;;;;;26.2;29.9;98610;;;;
2023/05/10 15:51:56;;;;;;;7.5;2.2;;;;;;;26.7;28.1;98610;;;;
2023/05/10 16:01:56;;;;;;;7.5;2.2;;;;;;;25.6;29.4;98610;;;;
2023/05/10 16:11:56;;;;;;;5.7;2.6;;;;;;;24.1;31;98610;;;;
2023/05/10 16:22:56;;;;;;;5.7;2.6;;;;;;;22;34.8;98610;;;;
2023/05/10 16:32:56;;;;;;;5.7;2.6;;;;;;;21.3;35.2;98620;;;;
2023/05/10 16:43:56;;;;;;;5;2.4;;;;;;;19.8;37.7;98630;;;;
2023/05/10 16:53:56;;;;;;;5;2.4;;;;;;;19.2;39;98630;;;;
2023/05/10 17:03:56;;;;;;;5;2.4;;;;;;;18.3;40.5;98630;;;;
2023/05/10 17:13:56;;;;;;;5.6;2.6;;;;;;;18;41.1;98640;;;;
2023/05/10 17:24:56;;;;;;;5.6;2.6;;;;;;;17.5;42.5;98650;;;;
2023/05/10 17:35:57;;;;;;;5.6;2.6;;;;;;;17.1;43.4;98660;;;;
2023/05/10 17:45:56;;;;;;;4.7;2.4;;;;;;;16.7;44.3;98670;;;;
2023/05/10 17:56:57;;;;;;;4.7;2.4;;;;;;;16.2;45.6;98680;;;;
2023/05/10 18:07:56;;;;;;;7.2;4.1;;;;;;;15.8;46;98690;;;;
2023/05/10 18:17:56;;;;;;;7.2;4.1;;;;;;;15.5;46.8;98700;;;;
2023/05/10 18:28:56;;;;;;;7.2;4.1;;;;;;;15.4;47.2;98700;;;;
2023/05/10 18:38:56;;;;;;;8.8;4.5;;;;;;;15.1;47.7;98720;;;;
2023/05/10 18:48:56;;;;;;;8.8;4.5;;;;;;;14.8;49.2;98730;;;;
2023/05/10 18:59:56;;;;;;;8.8;4.5;;;;;;;14.4;50.7;98740;;;;
2023/05/10 19:10:56;;;;;;;10.3;4.7;;;;;;;14;51.4;98750;;;;
2023/05/10 19:20:56;;;;;;;10.3;4.7;;;;;;;13.7;52.1;98750;;;;
2023/05/10 19:30:56;;;;;;;10.3;4.7;;;;;;;13.4;52.7;98750;;;;
2023/05/10 19:41:56;;;;;;;8.5;5.1;;;;;;;13.1;53.5;98760;;;;
2023/05/10 19:52:57;;;;;;;8.5;5.1;;;;;;;12.8;54.5;98760;;;;
2023/05/10 20:02:56;;;;;;;8.5;5.1;;;;;;;12.4;55.5;98760;;;;
2023/05/10 20:12:57;;;;;;;9.2;4.5;;;;;;;12.1;56.3;98760;;;;
2023/05/10 20:23:57;;;;;;;9.2;4.5;;;;;;;11.9;56.4;98770;;;;
2023/05/10 20:33:56;;;;;;;9.2;4.5;;;;;;;11.7;57.1;98770;;;;
2023/05/10 20:43:56;;;;;;;8.1;3.7;;;;;;;11.5;57.5;98770;;;;
2023/05/10 20:54:56;;;;;;;8.1;3.7;;;;;;;11.2;57.9;98780;;;;
2023/05/10 21:04:56;;;;;;;8.1;3.7;;;;;;;11;58.2;98780;;;;
2023/05/10 21:14:56;;;;;;;5.9;3.2;;;;;;;10.7;57.9;98790;;;;
2023/05/10 21:25:56;;;;;;;5.9;3.2;;;;;;;10.3;59.2;98790;;;;
2023/05/10 21:35:56;;;;;;;5.9;3.2;;;;;;;9.8;61.2;98790;;;;
2023/05/10 21:46:56;;;;;;;7;3.5;;;;;;;9.4;61.3;98800;;;;
2023/05/10 21:56:56;;;;;;;7;3.5;;;;;;;9;62.7;98810;;;;
2023/05/10 22:06:57;;;;;;;6.8;3.5;;;;;;;8.6;65;98810;;;;
2023/05/10 22:17:56;;;;;;;6.8;3.5;;;;;;;8.3;66;98820;;;;
2023/05/10 22:28:56;;;;;;;6.8;3.5;;;;;;;8;67.1;98820;;;;
2023/05/10 22:38:56;;;;;;;7.8;3.6;;;;;;;7.7;66.9;98820;;;;
2023/05/10 22:49:57;;;;;;;7.8;3.6;;;;;;;7.5;72;98830;;;;
2023/05/10 22:59:56;;;;;;;7.8;3.6;;;;;;;7.5;73.1;98830;;;;
2023/05/10 23:09:56;;;;;;;9.7;4.1;;;;;;;7.4;72.7;98830;;;;
2023/05/10 23:19:56;;;;;;;9.7;4.1;;;;;;;7.3;72.7;98840;;;;
2023/05/10 23:29:56;;;;;;;9.7;4.1;;;;;;;7.1;71.8;98840;;;;
2023/05/10 23:40:56;;;;;;;7.9;4.1;;;;;;;6.9;72.8;98850;;;;
2023/05/10 23:51:56;;;;;;;7.9;4.1;;;;;;;6.8;73.4;98850;;;;
